Aviation Digital Data Service (ADDS)

Output produced by TAFs form (1342 UTC 26 May 2015)
found at http://aviationweather.gov/adds/tafs/
 
KCNY 261126Z 2612/2712 13003KT P6SM SCT150 
     FM261900 25010KT P6SM VCTS SCT080CB BKN120 
     FM270500 23006KT P6SM SCT200